SWR319V EDDL-LSZH
Flight info
| Callsign | SWR319V |
|---|---|
| Flight time | N/A |
| Altitude | 31000 |
| Route | DODEN7Z DODEN Y852 TUSUK DCT ULNOK L607 SUNEG T721 LAMGO/N0439F270 T721 RILAX |
| Aircraft | A320/M-SDE3FGHIRWY/LB1 |
Departure
| Time | N/A |
|---|---|
| Airport | Düsseldorf Airport (EDDL) |
Arrival
| Time | 2026-05-01 07:55 |
|---|---|
| Airport | Zürich Airport (LSZH) |
| Time | Latitude | Longitude | Altitude | Speed | Heading |
|---|---|---|---|---|---|
| 2026-05-01 07:23 | 50.71274 | 7.98580 | 25353 ft | 441 kts | 146° |
| 2026-05-01 07:23 | 50.66031 | 8.03686 | 26065 ft | 445 kts | 146° |
| 2026-05-01 07:24 | 50.63372 | 8.06219 | 26379 ft | 449 kts | 149° |
| 2026-05-01 07:24 | 50.60506 | 8.08244 | 26712 ft | 454 kts | 159° |
| 2026-05-01 07:24 | 50.57453 | 8.09549 | 27039 ft | 457 kts | 168° |
| 2026-05-01 07:24 | 50.54279 | 8.10126 | 27363 ft | 460 kts | 174° |
| 2026-05-01 07:25 | 50.51080 | 8.10525 | 27666 ft | 462 kts | 174° |
| 2026-05-01 07:25 | 50.47869 | 8.10939 | 27959 ft | 465 kts | 174° |
| 2026-05-01 07:25 | 50.44636 | 8.11366 | 28252 ft | 467 kts | 174° |
| 2026-05-01 07:25 | 50.41390 | 8.11795 | 28539 ft | 469 kts | 174° |
| 2026-05-01 07:26 | 50.38132 | 8.12224 | 28824 ft | 471 kts | 174° |
| 2026-05-01 07:26 | 50.34857 | 8.12653 | 29102 ft | 474 kts | 174° |
| 2026-05-01 07:26 | 50.31571 | 8.13088 | 29481 ft | 473 kts | 174° |
| 2026-05-01 07:26 | 50.28296 | 8.13520 | 29893 ft | 473 kts | 174° |
| 2026-05-01 07:27 | 50.25016 | 8.13949 | 30284 ft | 472 kts | 174° |
| 2026-05-01 07:27 | 50.21742 | 8.14370 | 30630 ft | 472 kts | 174° |
| 2026-05-01 07:27 | 50.18472 | 8.14790 | 30947 ft | 471 kts | 173° |
| 2026-05-01 07:27 | 50.15243 | 8.15609 | 31280 ft | 470 kts | 165° |
| 2026-05-01 07:28 | 50.12137 | 8.17150 | 31374 ft | 467 kts | 156° |
| 2026-05-01 07:28 | 50.06468 | 8.21977 | 31406 ft | 464 kts | 147° |
| 2026-05-01 07:29 | 50.00919 | 8.27136 | 31394 ft | 465 kts | 147° |
| 2026-05-01 07:29 | 49.95356 | 8.32278 | 31395 ft | 465 kts | 147° |
| 2026-05-01 07:30 | 49.89778 | 8.37390 | 31392 ft | 466 kts | 147° |
| 2026-05-01 07:30 | 49.84341 | 8.42793 | 31387 ft | 463 kts | 139° |
| 2026-05-01 07:31 | 49.79640 | 8.49575 | 31379 ft | 462 kts | 135° |
| 2026-05-01 07:31 | 49.72215 | 8.59051 | 31368 ft | 465 kts | 150° |
| 2026-05-01 07:32 | 49.67215 | 8.62112 | 31367 ft | 468 kts | 165° |
| 2026-05-01 07:33 | 49.57607 | 8.64854 | 31367 ft | 469 kts | 168° |
| 2026-05-01 07:33 | 49.47984 | 8.67571 | 31369 ft | 468 kts | 165° |
| 2026-05-01 07:34 | 49.38973 | 8.73178 | 31362 ft | 466 kts | 154° |
| 2026-05-01 07:35 | 49.33066 | 8.77285 | 31351 ft | 466 kts | 154° |
| 2026-05-01 07:35 | 49.27154 | 8.81380 | 31339 ft | 466 kts | 154° |
| 2026-05-01 07:36 | 49.21036 | 8.84636 | 31325 ft | 468 kts | 168° |
| 2026-05-01 07:36 | 49.14538 | 8.84924 | 31321 ft | 470 kts | 187° |
| 2026-05-01 07:37 | 49.04879 | 8.82314 | 31310 ft | 470 kts | 189° |
| 2026-05-01 07:37 | 48.98429 | 8.80569 | 31305 ft | 470 kts | 189° |
| 2026-05-01 07:38 | 48.91982 | 8.78845 | 31209 ft | 472 kts | 189° |
| 2026-05-01 07:38 | 48.85490 | 8.77085 | 29615 ft | 480 kts | 189° |
| 2026-05-01 07:39 | 48.82181 | 8.76191 | 28471 ft | 483 kts | 189° |
| 2026-05-01 07:39 | 48.78864 | 8.75299 | 27285 ft | 487 kts | 189° |
| 2026-05-01 07:39 | 48.72199 | 8.73518 | 25602 ft | 480 kts | 189° |
| 2026-05-01 07:40 | 48.68920 | 8.72638 | 24794 ft | 476 kts | 189° |
| 2026-05-01 07:40 | 48.65674 | 8.71765 | 24026 ft | 472 kts | 189° |
| 2026-05-01 07:40 | 48.62457 | 8.70906 | 23198 ft | 467 kts | 189° |
| 2026-05-01 07:40 | 48.59276 | 8.70064 | 22503 ft | 461 kts | 188° |
| 2026-05-01 07:41 | 48.56138 | 8.69236 | 21812 ft | 455 kts | 188° |
| 2026-05-01 07:41 | 48.53037 | 8.68416 | 21133 ft | 450 kts | 188° |
| 2026-05-01 07:41 | 48.46941 | 8.66797 | 19856 ft | 440 kts | 188° |
| 2026-05-01 07:42 | 48.43945 | 8.66004 | 19241 ft | 435 kts | 188° |
| 2026-05-01 07:42 | 48.40978 | 8.65221 | 18660 ft | 430 kts | 188° |
| 2026-05-01 07:42 | 48.38027 | 8.64445 | 17717 ft | 432 kts | 188° |
| 2026-05-01 07:42 | 48.35091 | 8.63633 | 17145 ft | 426 kts | 189° |
| 2026-05-01 07:43 | 48.32210 | 8.62778 | 16623 ft | 419 kts | 189° |
| 2026-05-01 07:43 | 48.29376 | 8.61903 | 16119 ft | 412 kts | 189° |
| 2026-05-01 07:43 | 48.23837 | 8.60175 | 15077 ft | 401 kts | 189° |
| 2026-05-01 07:44 | 48.18408 | 8.58529 | 13977 ft | 395 kts | 189° |
| 2026-05-01 07:44 | 48.13059 | 8.56930 | 12806 ft | 388 kts | 189° |
| 2026-05-01 07:45 | 48.10420 | 8.56145 | 12208 ft | 385 kts | 189° |
| 2026-05-01 07:45 | 48.07804 | 8.55366 | 11593 ft | 382 kts | 190° |
| 2026-05-01 07:45 | 48.05207 | 8.54592 | 11006 ft | 379 kts | 190° |
| 2026-05-01 07:45 | 48.02668 | 8.53836 | 10848 ft | 363 kts | 190° |
| 2026-05-01 07:46 | 48.00245 | 8.53114 | 10718 ft | 348 kts | 190° |
| 2026-05-01 07:46 | 47.97926 | 8.52423 | 10606 ft | 333 kts | 189° |
| 2026-05-01 07:46 | 47.93545 | 8.51093 | 10366 ft | 310 kts | 192° |
| 2026-05-01 07:47 | 47.91491 | 8.50295 | 10239 ft | 300 kts | 194° |
| 2026-05-01 07:47 | 47.89510 | 8.49430 | 9994 ft | 294 kts | 195° |
| 2026-05-01 07:47 | 47.87565 | 8.48549 | 9920 ft | 291 kts | 195° |
| 2026-05-01 07:47 | 47.85607 | 8.47664 | 9421 ft | 297 kts | 195° |
| 2026-05-01 07:48 | 47.81735 | 8.45958 | 8785 ft | 289 kts | 194° |
| 2026-05-01 07:48 | 47.79782 | 8.45114 | 8420 ft | 288 kts | 194° |
| 2026-05-01 07:48 | 47.77866 | 8.44290 | 8043 ft | 286 kts | 194° |
| 2026-05-01 07:49 | 47.75963 | 8.43473 | 7694 ft | 284 kts | 194° |
| 2026-05-01 07:49 | 47.72221 | 8.41877 | 7014 ft | 279 kts | 194° |
| 2026-05-01 07:49 | 47.70340 | 8.41074 | 6402 ft | 285 kts | 195° |
| 2026-05-01 07:50 | 47.68434 | 8.40264 | 5627 ft | 285 kts | 195° |
| 2026-05-01 07:50 | 47.64777 | 8.38709 | 4882 ft | 254 kts | 196° |
| 2026-05-01 07:50 | 47.63143 | 8.38013 | 4748 ft | 234 kts | 195° |
| 2026-05-01 07:51 | 47.61614 | 8.37611 | 4699 ft | 216 kts | 178° |
| 2026-05-01 07:51 | 47.60179 | 8.37954 | 4490 ft | 205 kts | 159° |
| 2026-05-01 07:51 | 47.58940 | 8.38927 | 4372 ft | 197 kts | 142° |
| 2026-05-01 07:52 | 47.57026 | 8.41534 | 3804 ft | 180 kts | 137° |
| 2026-05-01 07:52 | 47.56126 | 8.42780 | 3531 ft | 174 kts | 136° |
| 2026-05-01 07:52 | 47.55253 | 8.43967 | 3334 ft | 168 kts | 135° |
| 2026-05-01 07:53 | 47.53625 | 8.46192 | 2941 ft | 149 kts | 135° |
| 2026-05-01 07:53 | 47.52876 | 8.47203 | 2774 ft | 143 kts | 134° |
| 2026-05-01 07:53 | 47.52153 | 8.48190 | 2550 ft | 141 kts | 133° |
| 2026-05-01 07:53 | 47.51438 | 8.49180 | 2334 ft | 141 kts | 133° |
| 2026-05-01 07:54 | 47.49989 | 8.51167 | 1913 ft | 143 kts | 133° |
| 2026-05-01 07:55 | 47.47813 | 8.54152 | 1405 ft | 135 kts | 136° |
| 2026-05-01 07:55 | 47.46878 | 8.55427 | 1399 ft | 42 kts | 137° |
| 2026-05-01 07:56 | 47.46226 | 8.55999 | 1406 ft | 29 kts | 175° |
| 2026-05-01 07:56 | 47.45865 | 8.55919 | 1415 ft | 20 kts | 200° |
| 2026-05-01 07:57 | 47.45737 | 8.55863 | 1409 ft | 19 kts | 191° |
| 2026-05-01 07:57 | 47.45477 | 8.55810 | 1408 ft | 10 kts | 178° |
| 2026-05-01 07:58 | 47.45444 | 8.55806 | 1408 ft | 1 kts | 186° |
| 2026-05-01 07:58 | 47.45426 | 8.55803 | 1407 ft | 0 kts | 186° |